createdAt,value
2023-05-12T00:03:59.889Z,19.30
2023-05-12T00:09:01.573Z,19.40
2023-05-12T00:14:03.615Z,19.40
2023-05-12T00:19:05.696Z,19.30
2023-05-12T00:24:07.496Z,19.30
2023-05-12T00:29:09.133Z,19.30
2023-05-12T00:34:10.801Z,19.30
2023-05-12T00:39:12.450Z,19.30
2023-05-12T00:44:14.094Z,19.30
2023-05-12T00:49:15.794Z,19.30
2023-05-12T00:54:17.395Z,19.30
2023-05-12T00:59:19.054Z,19.20
2023-05-12T01:04:20.778Z,19.20
2023-05-12T01:09:22.399Z,19.20
2023-05-12T01:14:24.110Z,19.20
2023-05-12T01:19:41.307Z,19.20
2023-05-12T01:24:46.186Z,19.20
2023-05-12T01:29:48.035Z,19.20
2023-05-12T01:34:50.599Z,19.20
2023-05-12T01:39:52.672Z,19.20
2023-05-12T01:44:54.374Z,19.20
2023-05-12T01:49:56.089Z,19.20
2023-05-12T01:54:57.643Z,19.20
2023-05-12T01:59:59.969Z,19.20
2023-05-12T02:05:01.588Z,19.20
2023-05-12T02:10:03.582Z,19.20
2023-05-12T02:15:05.715Z,19.20
2023-05-12T02:20:07.758Z,19.20
2023-05-12T02:25:09.407Z,19.30
2023-05-12T02:30:11.066Z,19.20
2023-05-12T02:35:12.652Z,19.20
2023-05-12T02:40:14.249Z,19.20
2023-05-12T02:45:15.882Z,19.20
2023-05-12T02:50:17.747Z,19.20
2023-05-12T02:55:19.469Z,19.20
2023-05-12T03:00:21.248Z,19.20
2023-05-12T03:05:23.106Z,19.20
2023-05-12T03:10:24.802Z,19.20
2023-05-12T03:15:26.524Z,19.20
2023-05-12T03:20:28.282Z,19.10
2023-05-12T03:25:29.911Z,19.10
2023-05-12T03:30:32.974Z,19.10
2023-05-12T03:35:34.679Z,19.10
2023-05-12T03:40:36.718Z,19.10
2023-05-12T05:03:56.399Z,19.00
2023-05-12T05:08:58.052Z,19.00
2023-05-12T05:13:59.721Z,19.00
2023-05-12T05:19:05.720Z,19.00
2023-05-12T05:24:09.172Z,19.00
2023-05-12T05:29:10.930Z,19.10
2023-05-12T05:34:12.570Z,19.10
2023-05-12T05:39:14.183Z,19.10
2023-05-12T05:44:15.826Z,19.10
2023-05-12T05:49:17.397Z,19.10
2023-05-12T05:54:19.062Z,19.10
2023-05-12T05:59:20.668Z,19.20
2023-05-12T06:04:22.409Z,19.20
2023-05-12T06:09:24.182Z,19.30
2023-05-12T06:14:25.860Z,19.30
2023-05-12T06:19:27.447Z,19.30
2023-05-12T06:24:29.077Z,19.40
2023-05-12T06:29:30.634Z,19.30
2023-05-12T06:34:32.637Z,19.30
2023-05-12T06:39:34.368Z,19.30
2023-05-12T06:44:35.921Z,19.20
2023-05-12T06:49:38.787Z,19.20
2023-05-12T06:54:40.652Z,19.20
2023-05-12T06:59:42.422Z,19.20
2023-05-12T07:04:44.338Z,19.10
2023-05-12T07:09:46.074Z,19.10
2023-05-12T07:14:47.643Z,19.10
2023-05-12T07:19:49.228Z,19.10
2023-05-12T07:24:50.953Z,19.10
2023-05-12T07:29:52.632Z,19.10
2023-05-12T07:34:54.378Z,19.10
2023-05-12T07:39:56.022Z,19.10
2023-05-12T07:44:57.576Z,19.10
2023-05-12T07:49:59.316Z,19.10
2023-05-12T07:55:00.874Z,19.10
2023-05-12T08:00:02.748Z,19.10
2023-05-12T08:05:04.525Z,19.10
2023-05-12T08:10:06.513Z,19.10
2023-05-12T08:15:08.539Z,19.10
2023-05-12T08:20:10.741Z,19.20
2023-05-12T08:25:13.518Z,19.20
2023-05-12T08:30:15.897Z,19.20
2023-05-12T08:35:17.706Z,19.20
2023-05-12T08:40:23.255Z,19.20
2023-05-12T08:45:25.081Z,19.20
2023-05-12T08:50:27.101Z,19.20
2023-05-12T08:55:32.820Z,19.20
2023-05-12T09:00:36.400Z,19.20
2023-05-12T09:05:38.982Z,19.20
2023-05-12T09:10:40.611Z,19.20
2023-05-12T09:15:42.988Z,19.30
2023-05-12T09:20:44.655Z,19.30
2023-05-12T09:25:49.485Z,19.30
2023-05-12T09:30:51.026Z,19.30
2023-05-12T09:35:53.142Z,19.30
2023-05-12T09:40:54.748Z,19.30
2023-05-12T09:45:56.521Z,19.30
2023-05-12T09:50:58.787Z,19.40
2023-05-12T09:56:00.468Z,19.40
2023-05-12T10:06:09.253Z,19.40
2023-05-12T10:11:11.043Z,19.50
2023-05-12T10:16:12.761Z,19.50
2023-05-12T10:21:14.937Z,19.60
2023-05-12T10:26:17.570Z,19.60
2023-05-12T10:31:19.687Z,19.60
2023-05-12T10:36:21.319Z,19.60
2023-05-12T10:41:32.641Z,19.60
2023-05-12T10:46:34.303Z,19.60
2023-05-12T10:51:45.086Z,19.60
2023-05-12T10:56:47.770Z,19.60
2023-05-12T11:01:55.816Z,19.60
2023-05-12T11:06:59.884Z,19.70
2023-05-12T11:12:02.968Z,19.70
2023-05-12T11:17:05.040Z,19.70
2023-05-12T11:22:10.600Z,19.70
2023-05-12T11:27:13.099Z,19.70
2023-05-12T11:32:15.685Z,19.70
2023-05-12T11:37:20.839Z,19.70
2023-05-12T11:42:25.098Z,19.70
2023-05-12T11:47:27.719Z,19.70
2023-05-12T11:52:29.512Z,19.70
2023-05-12T11:57:35.901Z,19.60
2023-05-12T12:02:39.563Z,19.70
2023-05-12T12:07:41.506Z,19.70
2023-05-12T12:12:43.211Z,19.70
2023-05-12T12:17:44.855Z,19.70
2023-05-12T12:22:46.542Z,19.70
2023-05-12T12:27:48.467Z,19.70
2023-05-12T12:32:50.258Z,19.70
2023-05-12T12:37:52.302Z,19.70
2023-05-12T12:42:54.018Z,19.70
2023-05-12T12:47:55.658Z,19.80
2023-05-12T12:52:57.369Z,19.80
2023-05-12T12:57:58.941Z,19.90
2023-05-12T13:03:01.049Z,20.00
2023-05-12T13:08:03.101Z,20.10
2023-05-12T13:13:04.745Z,20.20
2023-05-12T13:18:06.400Z,20.20
2023-05-12T13:23:08.036Z,20.30
2023-05-12T13:28:09.603Z,20.30
2023-05-12T13:33:11.386Z,20.30
2023-05-12T13:38:13.521Z,20.30
2023-05-12T13:43:15.280Z,20.30
2023-05-12T13:48:17.075Z,20.30
2023-05-12T13:53:18.739Z,20.20
2023-05-12T13:58:20.405Z,20.20
2023-05-12T14:03:22.208Z,20.20
2023-05-12T14:08:23.949Z,20.20
2023-05-12T14:13:26.239Z,20.30
2023-05-12T14:18:28.013Z,20.30
2023-05-12T14:23:29.692Z,20.30
2023-05-12T14:28:31.376Z,20.20
2023-05-12T14:33:33.108Z,20.20
2023-05-12T14:38:34.816Z,20.20
2023-05-12T14:43:36.638Z,20.20
2023-05-12T14:48:38.267Z,20.20
2023-05-12T14:53:39.841Z,20.20
2023-05-12T14:58:41.428Z,20.10
2023-05-12T15:03:43.576Z,20.10
2023-05-12T15:08:45.489Z,20.10
2023-05-12T15:13:47.132Z,20.00
2023-05-12T15:18:48.754Z,20.00
2023-05-12T15:23:50.542Z,20.00
2023-05-12T15:28:52.390Z,20.00
2023-05-12T15:33:53.992Z,19.90
2023-05-12T15:38:56.553Z,19.90
2023-05-12T15:43:58.138Z,19.90
2023-05-12T15:48:59.713Z,19.90
2023-05-12T15:54:01.764Z,19.90
2023-05-12T15:59:05.152Z,19.90
2023-05-12T16:04:06.915Z,20.00
2023-05-12T16:09:09.428Z,20.30
2023-05-12T16:14:11.022Z,20.40
2023-05-12T16:19:12.587Z,20.70
2023-05-12T16:24:14.280Z,21.10
2023-05-12T16:29:15.854Z,21.10
2023-05-12T16:34:18.176Z,21.10
2023-05-12T16:39:19.703Z,21.20
2023-05-12T16:44:21.269Z,21.10
2023-05-12T16:49:22.999Z,21.10
2023-05-12T16:54:24.694Z,21.00
2023-05-12T16:59:26.262Z,20.90
2023-05-12T17:04:27.904Z,20.90
2023-05-12T17:09:29.656Z,20.80
2023-05-12T17:14:31.200Z,20.70
2023-05-12T17:19:33.806Z,20.70
2023-05-12T17:24:35.462Z,20.70
2023-05-12T17:29:37.068Z,20.70
2023-05-12T17:34:38.662Z,20.60
2023-05-12T17:39:41.994Z,20.60
2023-05-12T17:44:43.747Z,20.60
2023-05-12T17:49:45.303Z,20.60
2023-05-12T17:54:47.139Z,20.60
2023-05-12T17:59:48.831Z,20.60
2023-05-12T18:04:50.471Z,20.60
2023-05-12T18:09:52.201Z,20.60
2023-05-12T18:14:53.792Z,20.60
2023-05-12T18:19:55.416Z,20.50
2023-05-12T18:24:57.036Z,20.50
2023-05-12T18:29:58.610Z,20.50
2023-05-12T18:35:00.175Z,20.50
2023-05-12T18:40:01.903Z,20.50
2023-05-12T18:45:03.914Z,20.50
2023-05-12T18:50:05.629Z,20.40
2023-05-12T18:55:07.523Z,20.40
2023-05-12T19:00:09.985Z,20.40
2023-05-12T19:05:11.670Z,20.40
2023-05-12T19:10:13.364Z,20.30
2023-05-12T19:15:14.932Z,20.30
2023-05-12T19:20:16.666Z,20.30
2023-05-12T19:25:18.560Z,20.20
2023-05-12T19:30:20.560Z,20.20
2023-05-12T19:35:24.585Z,20.20
2023-05-12T19:40:26.179Z,20.20
2023-05-12T19:45:28.699Z,20.20
2023-05-12T19:50:30.701Z,20.20
2023-05-12T19:55:32.564Z,20.20
2023-05-12T20:00:34.439Z,20.20
2023-05-12T20:05:39.183Z,20.10
2023-05-12T20:10:40.962Z,20.10
2023-05-12T20:15:44.036Z,20.10
2023-05-12T20:20:45.687Z,20.10
2023-05-12T20:25:47.394Z,20.10
2023-05-12T20:30:49.057Z,20.00
2023-05-12T20:35:50.815Z,20.10
2023-05-12T20:40:52.458Z,20.00
2023-05-12T20:45:54.035Z,20.00
2023-05-12T20:50:56.443Z,20.00
2023-05-12T20:55:58.096Z,20.10
2023-05-12T21:00:59.657Z,20.10
2023-05-12T21:06:01.260Z,20.20
2023-05-12T21:11:02.893Z,20.20
2023-05-12T21:16:04.587Z,20.20
2023-05-12T21:21:06.536Z,20.20
2023-05-12T21:26:10.325Z,20.20
2023-05-12T21:31:11.978Z,20.10
2023-05-12T21:36:13.579Z,20.10
2023-05-12T21:41:15.216Z,20.10
2023-05-12T21:46:16.795Z,20.10
2023-05-12T21:51:18.411Z,20.10
2023-05-12T21:56:23.008Z,20.10
2023-05-12T22:01:24.733Z,20.10
2023-05-12T22:06:26.854Z,20.10
2023-05-12T22:11:29.056Z,20.10
2023-05-12T22:16:40.833Z,20.10
2023-05-12T22:21:43.763Z,20.10
2023-05-12T22:26:45.909Z,20.10
2023-05-12T22:31:47.703Z,20.10
2023-05-12T22:36:49.349Z,20.10
2023-05-12T22:41:51.057Z,20.10
2023-05-12T22:46:52.759Z,20.10
2023-05-12T22:51:54.368Z,20.10
2023-05-12T22:56:56.180Z,20.10
2023-05-12T23:01:57.876Z,20.10
2023-05-12T23:06:59.435Z,20.10
2023-05-12T23:12:01.158Z,20.10
2023-05-12T23:17:03.034Z,20.10
2023-05-12T23:22:04.797Z,20.10
2023-05-12T23:27:06.554Z,20.10
2023-05-12T23:32:08.342Z,20.10
2023-05-12T23:37:10.196Z,20.00
2023-05-12T23:42:12.217Z,20.00
2023-05-12T23:47:13.785Z,20.00
2023-05-12T23:52:15.461Z,20.00
2023-05-12T23:57:17.178Z,20.00
